This is the latest recevied weather packets stored in our database for station/object HP1GDP-12. If no packets are shown the sender has not sent any weather packets the latest 1 day(s).
| Time | Temp. | Humidity | Pressure | Rain* | Wind** | Luminosity | Snow |
|---|---|---|---|---|---|---|---|
| 1777864612 | 30.56° C | 38% | 1005.2 hPa | - | - | - | - |
| 1777864007 | 30.56° C | 37% | 1005 hPa | - | - | - | - |
| 1777863402 | 30° C | 35% | 1004.9 hPa | - | - | - | - |
| 1777862798 | 30° C | 33% | 1005 hPa | - | - | - | - |
| 1777861590 | 30° C | 34% | 1004.9 hPa | - | - | - | - |
| 1777860986 | 30.56° C | 34% | 1004.8 hPa | - | - | - | - |
| 1777860382 | 30.56° C | 33% | 1004.7 hPa | - | - | - | - |
| 1777859174 | 30.56° C | 30% | 1004.4 hPa | - | - | - | - |
| 1777858570 | 30.56° C | 31% | 1004.4 hPa | - | - | - | - |
| 1777857965 | 30.56° C | 31% | 1004.3 hPa | - | - | - | - |
| 1777856757 | 31.11° C | 35% | 1004.2 hPa | - | - | - | - |
| 1777856153 | 31.11° C | 34% | 1004.4 hPa | - | - | - | - |
| 1777855548 | 31.67° C | 37% | 1004.4 hPa | - | - | - | - |
| 1777854944 | 31.67° C | 38% | 1004.4 hPa | - | - | - | - |
| 1777853736 | 31.67° C | 33% | 1004.2 hPa | - | - | - | - |
| 1777852528 | 32.22° C | 34% | 1004 hPa | - | - | - | - |
| 1777851319 | 32.78° C | 34% | 1003.7 hPa | - | - | - | - |
| 1777850716 | 33.33° C | 36% | 1003.6 hPa | - | - | - | - |
| 1777850112 | 33.89° C | 38% | 1003.4 hPa | - | - | - | - |
| 1777849507 | 33.89° C | 41% | 1003.3 hPa | - | - | - | - |
| 1777848299 | 33.89° C | 41% | 1003.1 hPa | - | - | - | - |
| 1777847695 | 33.89° C | 41% | 1003.1 hPa | - | - | - | - |
| 1777845279 | 33.89° C | 41% | 1003.2 hPa | - | - | - | - |
| 1777844675 | 33.89° C | 41% | 1003.1 hPa | - | - | - | - |
| 1777844071 | 33.89° C | 41% | 1003.1 hPa | - | - | - | - |
* Rain since midnight (hover to see other rain measurements)
** Current wind speed in m/s (hover to see current wind gust speed)